sensor_id;sensor_type;location;lat;lon;timestamp;temperature;humidity
19279;DHT22;9773;47.062;15.446;2023-04-24T00:00:09;11.30;99.90
19279;DHT22;9773;47.062;15.446;2023-04-24T00:02:36;11.30;99.90
19279;DHT22;9773;47.062;15.446;2023-04-24T00:05:06;11.30;99.90
19279;DHT22;9773;47.062;15.446;2023-04-24T00:07:32;11.30;99.90
19279;DHT22;9773;47.062;15.446;2023-04-24T00:09:58;11.20;99.90
19279;DHT22;9773;47.062;15.446;2023-04-24T00:12:24;11.20;99.90
19279;DHT22;9773;47.062;15.446;2023-04-24T00:14:50;11.10;99.90
19279;DHT22;9773;47.062;15.446;2023-04-24T00:17:16;11.10;99.90
19279;DHT22;9773;47.062;15.446;2023-04-24T00:19:45;11.10;99.90
19279;DHT22;9773;47.062;15.446;2023-04-24T00:22:12;11.10;99.90
19279;DHT22;9773;47.062;15.446;2023-04-24T00:24:39;11.20;99.90
19279;DHT22;9773;47.062;15.446;2023-04-24T00:27:04;11.00;99.90
19279;DHT22;9773;47.062;15.446;2023-04-24T00:29:30;11.10;99.90
19279;DHT22;9773;47.062;15.446;2023-04-24T00:31:56;11.10;99.90
19279;DHT22;9773;47.062;15.446;2023-04-24T00:34:22;11.10;99.90
19279;DHT22;9773;47.062;15.446;2023-04-24T00:36:48;11.10;99.90
19279;DHT22;9773;47.062;15.446;2023-04-24T00:39:20;11.10;99.90
19279;DHT22;9773;47.062;15.446;2023-04-24T00:41:46;11.00;99.90
19279;DHT22;9773;47.062;15.446;2023-04-24T00:44:14;10.90;99.90
19279;DHT22;9773;47.062;15.446;2023-04-24T00:46:40;10.90;99.90
19279;DHT22;9773;47.062;15.446;2023-04-24T00:49:06;10.90;99.90
19279;DHT22;9773;47.062;15.446;2023-04-24T00:51:34;10.90;99.90
19279;DHT22;9773;47.062;15.446;2023-04-24T00:54:02;10.90;99.90
19279;DHT22;9773;47.062;15.446;2023-04-24T00:56:28;11.00;99.90
19279;DHT22;9773;47.062;15.446;2023-04-24T00:58:54;11.00;99.90
19279;DHT22;9773;47.062;15.446;2023-04-24T01:01:21;11.00;99.90
19279;DHT22;9773;47.062;15.446;2023-04-24T01:03:49;11.00;99.90
19279;DHT22;9773;47.062;15.446;2023-04-24T01:06:16;11.10;99.90
19279;DHT22;9773;47.062;15.446;2023-04-24T01:08:44;11.00;99.90
19279;DHT22;9773;47.062;15.446;2023-04-24T01:11:10;11.00;99.90
19279;DHT22;9773;47.062;15.446;2023-04-24T01:13:36;10.90;99.90
19279;DHT22;9773;47.062;15.446;2023-04-24T01:16:02;10.90;99.90
19279;DHT22;9773;47.062;15.446;2023-04-24T01:18:28;10.80;99.90
19279;DHT22;9773;47.062;15.446;2023-04-24T01:20:59;10.80;99.90
19279;DHT22;9773;47.062;15.446;2023-04-24T01:23:28;10.90;99.90
19279;DHT22;9773;47.062;15.446;2023-04-24T01:25:54;10.90;99.90
19279;DHT22;9773;47.062;15.446;2023-04-24T01:28:20;10.80;99.90
19279;DHT22;9773;47.062;15.446;2023-04-24T01:30:46;10.80;99.90
19279;DHT22;9773;47.062;15.446;2023-04-24T01:33:12;10.80;99.90
19279;DHT22;9773;47.062;15.446;2023-04-24T01:35:38;10.70;99.90
19279;DHT22;9773;47.062;15.446;2023-04-24T01:38:04;10.80;99.90
19279;DHT22;9773;47.062;15.446;2023-04-24T01:40:32;10.80;99.90
19279;DHT22;9773;47.062;15.446;2023-04-24T01:43:00;10.80;99.90
19279;DHT22;9773;47.062;15.446;2023-04-24T01:45:26;10.80;99.90
19279;DHT22;9773;47.062;15.446;2023-04-24T01:47:52;10.80;99.90
19279;DHT22;9773;47.062;15.446;2023-04-24T01:50:18;10.80;99.90
19279;DHT22;9773;47.062;15.446;2023-04-24T01:52:44;10.80;99.90
19279;DHT22;9773;47.062;15.446;2023-04-24T01:55:10;10.70;99.90
19279;DHT22;9773;47.062;15.446;2023-04-24T01:57:36;10.80;99.90
19279;DHT22;9773;47.062;15.446;2023-04-24T02:00:03;10.80;99.90
19279;DHT22;9773;47.062;15.446;2023-04-24T02:02:30;10.70;99.90
19279;DHT22;9773;47.062;15.446;2023-04-24T02:04:56;10.70;99.90
19279;DHT22;9773;47.062;15.446;2023-04-24T02:07:22;10.80;99.90
19279;DHT22;9773;47.062;15.446;2023-04-24T02:09:48;10.80;99.90
19279;DHT22;9773;47.062;15.446;2023-04-24T02:12:17;10.80;99.90
19279;DHT22;9773;47.062;15.446;2023-04-24T02:14:43;10.80;99.90
19279;DHT22;9773;47.062;15.446;2023-04-24T02:17:10;10.90;99.90
19279;DHT22;9773;47.062;15.446;2023-04-24T02:19:38;10.80;99.90
19279;DHT22;9773;47.062;15.446;2023-04-24T02:22:04;10.90;99.90
19279;DHT22;9773;47.062;15.446;2023-04-24T02:24:30;10.90;99.90
19279;DHT22;9773;47.062;15.446;2023-04-24T02:26:56;11.00;99.90
19279;DHT22;9773;47.062;15.446;2023-04-24T02:29:21;10.90;99.90
19279;DHT22;9773;47.062;15.446;2023-04-24T02:31:48;10.90;99.90
19279;DHT22;9773;47.062;15.446;2023-04-24T02:34:14;10.80;99.90
19279;DHT22;9773;47.062;15.446;2023-04-24T02:36:39;10.90;99.90
19279;DHT22;9773;47.062;15.446;2023-04-24T02:39:05;10.80;99.90
19279;DHT22;9773;47.062;15.446;2023-04-24T02:41:31;10.70;99.90
19279;DHT22;9773;47.062;15.446;2023-04-24T02:43:58;10.70;99.90
19279;DHT22;9773;47.062;15.446;2023-04-24T02:46:25;10.70;99.90
19279;DHT22;9773;47.062;15.446;2023-04-24T02:48:50;10.60;99.90
19279;DHT22;9773;47.062;15.446;2023-04-24T02:51:16;10.60;99.90
19279;DHT22;9773;47.062;15.446;2023-04-24T02:53:42;10.70;99.90
19279;DHT22;9773;47.062;15.446;2023-04-24T02:56:08;10.70;99.90
19279;DHT22;9773;47.062;15.446;2023-04-24T02:58:34;10.60;99.90
19279;DHT22;9773;47.062;15.446;2023-04-24T03:01:01;10.60;99.90
19279;DHT22;9773;47.062;15.446;2023-04-24T03:03:26;10.50;99.90
19279;DHT22;9773;47.062;15.446;2023-04-24T03:05:52;10.50;99.90
19279;DHT22;9773;47.062;15.446;2023-04-24T03:08:18;10.50;99.90
19279;DHT22;9773;47.062;15.446;2023-04-24T03:10:44;10.50;99.90
19279;DHT22;9773;47.062;15.446;2023-04-24T03:13:09;10.40;99.90
19279;DHT22;9773;47.062;15.446;2023-04-24T03:15:35;10.40;99.90
19279;DHT22;9773;47.062;15.446;2023-04-24T03:18:01;10.50;99.90
19279;DHT22;9773;47.062;15.446;2023-04-24T03:20:28;10.50;99.90
19279;DHT22;9773;47.062;15.446;2023-04-24T03:22:53;10.50;99.90
19279;DHT22;9773;47.062;15.446;2023-04-24T03:25:19;10.50;99.90
19279;DHT22;9773;47.062;15.446;2023-04-24T03:27:46;10.50;99.90
19279;DHT22;9773;47.062;15.446;2023-04-24T03:30:12;10.50;99.90
19279;DHT22;9773;47.062;15.446;2023-04-24T03:32:37;10.50;99.90
19279;DHT22;9773;47.062;15.446;2023-04-24T03:35:06;10.50;99.90
19279;DHT22;9773;47.062;15.446;2023-04-24T03:37:33;10.60;99.90
19279;DHT22;9773;47.062;15.446;2023-04-24T03:39:58;10.60;99.90
19279;DHT22;9773;47.062;15.446;2023-04-24T03:42:24;10.50;99.90
19279;DHT22;9773;47.062;15.446;2023-04-24T03:44:50;10.50;99.90
19279;DHT22;9773;47.062;15.446;2023-04-24T03:47:16;10.60;99.90
19279;DHT22;9773;47.062;15.446;2023-04-24T03:49:42;10.60;99.90
19279;DHT22;9773;47.062;15.446;2023-04-24T03:52:07;10.50;99.90
19279;DHT22;9773;47.062;15.446;2023-04-24T03:54:33;10.50;99.90
19279;DHT22;9773;47.062;15.446;2023-04-24T03:56:59;10.40;99.90
19279;DHT22;9773;47.062;15.446;2023-04-24T03:59:25;10.40;99.90
19279;DHT22;9773;47.062;15.446;2023-04-24T04:01:51;10.40;99.90
19279;DHT22;9773;47.062;15.446;2023-04-24T04:04:16;10.50;99.90
19279;DHT22;9773;47.062;15.446;2023-04-24T04:06:43;10.50;99.90
19279;DHT22;9773;47.062;15.446;2023-04-24T04:09:10;10.60;99.90
19279;DHT22;9773;47.062;15.446;2023-04-24T04:11:36;10.60;99.90
19279;DHT22;9773;47.062;15.446;2023-04-24T04:14:02;10.60;99.90
19279;DHT22;9773;47.062;15.446;2023-04-24T04:16:27;10.60;99.90
19279;DHT22;9773;47.062;15.446;2023-04-24T04:18:53;10.70;99.90
19279;DHT22;9773;47.062;15.446;2023-04-24T04:21:19;10.70;99.90
19279;DHT22;9773;47.062;15.446;2023-04-24T04:23:45;10.70;99.90
19279;DHT22;9773;47.062;15.446;2023-04-24T04:26:11;10.70;99.90
19279;DHT22;9773;47.062;15.446;2023-04-24T04:28:38;10.80;99.90
19279;DHT22;9773;47.062;15.446;2023-04-24T04:31:05;10.80;99.90
19279;DHT22;9773;47.062;15.446;2023-04-24T04:33:33;10.80;99.90
19279;DHT22;9773;47.062;15.446;2023-04-24T04:35:59;10.70;99.90
19279;DHT22;9773;47.062;15.446;2023-04-24T04:38:25;10.60;99.90
19279;DHT22;9773;47.062;15.446;2023-04-24T04:40:55;10.70;99.90
19279;DHT22;9773;47.062;15.446;2023-04-24T04:43:24;10.70;99.90
19279;DHT22;9773;47.062;15.446;2023-04-24T04:45:51;10.70;99.90
19279;DHT22;9773;47.062;15.446;2023-04-24T04:48:17;10.80;99.90
19279;DHT22;9773;47.062;15.446;2023-04-24T04:50:44;10.80;99.90
19279;DHT22;9773;47.062;15.446;2023-04-24T04:53:10;10.80;99.90
19279;DHT22;9773;47.062;15.446;2023-04-24T04:55:36;10.80;99.90
19279;DHT22;9773;47.062;15.446;2023-04-24T04:58:02;10.90;99.90
19279;DHT22;9773;47.062;15.446;2023-04-24T05:00:28;11.00;99.90
19279;DHT22;9773;47.062;15.446;2023-04-24T05:02:59;10.90;99.90
19279;DHT22;9773;47.062;15.446;2023-04-24T05:05:24;11.00;99.90
19279;DHT22;9773;47.062;15.446;2023-04-24T05:07:50;11.00;99.90
19279;DHT22;9773;47.062;15.446;2023-04-24T05:10:16;11.00;99.90
19279;DHT22;9773;47.062;15.446;2023-04-24T05:12:42;11.10;99.90
19279;DHT22;9773;47.062;15.446;2023-04-24T05:15:07;11.10;99.90
19279;DHT22;9773;47.062;15.446;2023-04-24T05:17:33;11.10;99.90
19279;DHT22;9773;47.062;15.446;2023-04-24T05:19:59;11.10;99.90
19279;DHT22;9773;47.062;15.446;2023-04-24T05:22:26;11.00;99.90
19279;DHT22;9773;47.062;15.446;2023-04-24T05:24:51;10.90;99.90
19279;DHT22;9773;47.062;15.446;2023-04-24T05:27:17;10.90;99.90
19279;DHT22;9773;47.062;15.446;2023-04-24T05:29:43;11.00;99.90
19279;DHT22;9773;47.062;15.446;2023-04-24T05:32:09;11.00;99.90
19279;DHT22;9773;47.062;15.446;2023-04-24T05:34:34;11.10;99.90
19279;DHT22;9773;47.062;15.446;2023-04-24T05:37:00;11.10;99.90
19279;DHT22;9773;47.062;15.446;2023-04-24T05:39:26;11.10;99.90
19279;DHT22;9773;47.062;15.446;2023-04-24T05:41:52;11.10;99.90
19279;DHT22;9773;47.062;15.446;2023-04-24T05:44:18;11.20;99.90
19279;DHT22;9773;47.062;15.446;2023-04-24T05:46:44;11.30;99.90
19279;DHT22;9773;47.062;15.446;2023-04-24T05:49:09;11.30;99.90
19279;DHT22;9773;47.062;15.446;2023-04-24T05:51:35;11.40;99.90
19279;DHT22;9773;47.062;15.446;2023-04-24T05:54:01;11.40;99.90
19279;DHT22;9773;47.062;15.446;2023-04-24T05:56:28;11.40;99.90
19279;DHT22;9773;47.062;15.446;2023-04-24T05:58:54;11.50;99.90
19279;DHT22;9773;47.062;15.446;2023-04-24T06:01:20;11.60;99.90
19279;DHT22;9773;47.062;15.446;2023-04-24T06:03:46;11.80;99.90
19279;DHT22;9773;47.062;15.446;2023-04-24T06:06:12;12.00;99.90
19279;DHT22;9773;47.062;15.446;2023-04-24T06:08:38;12.10;99.90
19279;DHT22;9773;47.062;15.446;2023-04-24T06:11:04;12.30;99.90
19279;DHT22;9773;47.062;15.446;2023-04-24T06:13:30;12.30;99.90
19279;DHT22;9773;47.062;15.446;2023-04-24T06:15:55;12.50;99.90
19279;DHT22;9773;47.062;15.446;2023-04-24T06:18:21;12.60;99.90
19279;DHT22;9773;47.062;15.446;2023-04-24T06:20:47;12.70;99.90
19279;DHT22;9773;47.062;15.446;2023-04-24T06:23:13;12.90;99.90
19279;DHT22;9773;47.062;15.446;2023-04-24T06:25:39;13.00;99.90
19279;DHT22;9773;47.062;15.446;2023-04-24T06:28:06;13.10;99.90
19279;DHT22;9773;47.062;15.446;2023-04-24T06:30:32;13.40;99.90
19279;DHT22;9773;47.062;15.446;2023-04-24T06:32:57;13.60;99.90
19279;DHT22;9773;47.062;15.446;2023-04-24T06:35:23;13.90;99.90
19279;DHT22;9773;47.062;15.446;2023-04-24T06:37:49;14.10;99.90
19279;DHT22;9773;47.062;15.446;2023-04-24T06:40:15;14.50;99.90
19279;DHT22;9773;47.062;15.446;2023-04-24T06:42:44;14.70;99.90
19279;DHT22;9773;47.062;15.446;2023-04-24T06:45:10;15.00;99.90
19279;DHT22;9773;47.062;15.446;2023-04-24T06:47:36;15.10;99.90
19279;DHT22;9773;47.062;15.446;2023-04-24T06:50:03;15.10;99.90
19279;DHT22;9773;47.062;15.446;2023-04-24T06:52:29;14.90;99.90
19279;DHT22;9773;47.062;15.446;2023-04-24T06:55:02;14.80;99.90
19279;DHT22;9773;47.062;15.446;2023-04-24T06:57:28;14.80;99.90
19279;DHT22;9773;47.062;15.446;2023-04-24T06:59:55;14.90;99.90
19279;DHT22;9773;47.062;15.446;2023-04-24T07:02:21;14.90;99.90
19279;DHT22;9773;47.062;15.446;2023-04-24T07:04:47;15.00;99.90
19279;DHT22;9773;47.062;15.446;2023-04-24T07:07:13;14.90;99.90
19279;DHT22;9773;47.062;15.446;2023-04-24T07:09:40;14.80;99.90
19279;DHT22;9773;47.062;15.446;2023-04-24T07:12:10;14.70;99.90
19279;DHT22;9773;47.062;15.446;2023-04-24T07:14:36;14.60;99.90
19279;DHT22;9773;47.062;15.446;2023-04-24T07:17:04;14.50;99.90
19279;DHT22;9773;47.062;15.446;2023-04-24T07:19:30;14.50;99.90
19279;DHT22;9773;47.062;15.446;2023-04-24T07:21:56;14.40;99.90
19279;DHT22;9773;47.062;15.446;2023-04-24T07:24:24;14.30;99.90
19279;DHT22;9773;47.062;15.446;2023-04-24T07:26:51;14.30;99.90
19279;DHT22;9773;47.062;15.446;2023-04-24T07:29:17;14.20;99.90
19279;DHT22;9773;47.062;15.446;2023-04-24T07:31:43;14.00;99.90
19279;DHT22;9773;47.062;15.446;2023-04-24T07:34:09;13.90;99.90
19279;DHT22;9773;47.062;15.446;2023-04-24T07:36:35;13.90;99.90
19279;DHT22;9773;47.062;15.446;2023-04-24T07:39:01;13.90;99.90
19279;DHT22;9773;47.062;15.446;2023-04-24T07:41:26;13.80;99.90
19279;DHT22;9773;47.062;15.446;2023-04-24T07:43:53;13.80;99.90
19279;DHT22;9773;47.062;15.446;2023-04-24T07:46:19;13.70;99.90
19279;DHT22;9773;47.062;15.446;2023-04-24T07:48:45;13.70;99.90
19279;DHT22;9773;47.062;15.446;2023-04-24T07:51:14;13.60;99.90
19279;DHT22;9773;47.062;15.446;2023-04-24T07:53:40;13.60;99.90
19279;DHT22;9773;47.062;15.446;2023-04-24T07:56:06;13.60;99.90
19279;DHT22;9773;47.062;15.446;2023-04-24T07:58:31;13.50;99.90
19279;DHT22;9773;47.062;15.446;2023-04-24T08:00:57;13.50;99.90
19279;DHT22;9773;47.062;15.446;2023-04-24T08:03:23;13.60;99.90
19279;DHT22;9773;47.062;15.446;2023-04-24T08:05:50;13.60;99.90
19279;DHT22;9773;47.062;15.446;2023-04-24T08:08:16;13.60;99.90
19279;DHT22;9773;47.062;15.446;2023-04-24T08:10:42;13.60;99.90
19279;DHT22;9773;47.062;15.446;2023-04-24T08:13:08;13.60;99.90
19279;DHT22;9773;47.062;15.446;2023-04-24T08:15:34;13.60;99.90
19279;DHT22;9773;47.062;15.446;2023-04-24T08:18:00;13.60;99.90
19279;DHT22;9773;47.062;15.446;2023-04-24T08:20:26;13.70;99.90
19279;DHT22;9773;47.062;15.446;2023-04-24T08:22:52;13.70;99.90
19279;DHT22;9773;47.062;15.446;2023-04-24T08:25:18;13.60;99.90
19279;DHT22;9773;47.062;15.446;2023-04-24T08:27:44;13.70;99.90
19279;DHT22;9773;47.062;15.446;2023-04-24T08:30:10;13.70;99.90
19279;DHT22;9773;47.062;15.446;2023-04-24T08:32:37;13.80;99.90
19279;DHT22;9773;47.062;15.446;2023-04-24T08:35:03;13.80;99.90
19279;DHT22;9773;47.062;15.446;2023-04-24T08:37:29;13.80;99.90
19279;DHT22;9773;47.062;15.446;2023-04-24T08:39:54;13.80;99.90
19279;DHT22;9773;47.062;15.446;2023-04-24T08:42:21;13.80;99.90
19279;DHT22;9773;47.062;15.446;2023-04-24T08:44:48;13.70;99.90
19279;DHT22;9773;47.062;15.446;2023-04-24T08:47:15;13.70;99.90
19279;DHT22;9773;47.062;15.446;2023-04-24T08:49:41;13.70;99.90
19279;DHT22;9773;47.062;15.446;2023-04-24T08:52:08;13.70;99.90
19279;DHT22;9773;47.062;15.446;2023-04-24T08:54:35;13.70;99.90
19279;DHT22;9773;47.062;15.446;2023-04-24T08:57:02;13.70;99.90
19279;DHT22;9773;47.062;15.446;2023-04-24T08:59:30;13.70;99.90
19279;DHT22;9773;47.062;15.446;2023-04-24T09:01:57;13.70;99.90
19279;DHT22;9773;47.062;15.446;2023-04-24T09:04:24;13.70;99.90
19279;DHT22;9773;47.062;15.446;2023-04-24T09:06:52;13.70;99.90
19279;DHT22;9773;47.062;15.446;2023-04-24T09:09:20;13.60;99.90
19279;DHT22;9773;47.062;15.446;2023-04-24T09:11:46;13.60;99.90
19279;DHT22;9773;47.062;15.446;2023-04-24T09:14:14;13.50;99.90
19279;DHT22;9773;47.062;15.446;2023-04-24T09:16:40;13.40;99.90
19279;DHT22;9773;47.062;15.446;2023-04-24T09:19:06;13.20;99.90
19279;DHT22;9773;47.062;15.446;2023-04-24T09:21:33;13.10;99.90
19279;DHT22;9773;47.062;15.446;2023-04-24T09:24:06;13.00;99.90
19279;DHT22;9773;47.062;15.446;2023-04-24T09:26:35;12.90;99.90
19279;DHT22;9773;47.062;15.446;2023-04-24T09:29:01;12.80;99.90
19279;DHT22;9773;47.062;15.446;2023-04-24T09:31:28;12.80;99.90
19279;DHT22;9773;47.062;15.446;2023-04-24T09:34:03;12.80;99.90
19279;DHT22;9773;47.062;15.446;2023-04-24T09:36:42;12.70;99.90
19279;DHT22;9773;47.062;15.446;2023-04-24T09:39:13;12.70;99.90
19279;DHT22;9773;47.062;15.446;2023-04-24T09:41:50;12.50;99.90
19279;DHT22;9773;47.062;15.446;2023-04-24T09:44:18;12.50;99.90
19279;DHT22;9773;47.062;15.446;2023-04-24T09:46:59;12.50;99.90
19279;DHT22;9773;47.062;15.446;2023-04-24T09:49:26;12.50;99.90
19279;DHT22;9773;47.062;15.446;2023-04-24T09:51:52;12.70;99.90
19279;DHT22;9773;47.062;15.446;2023-04-24T09:54:27;12.90;99.90
19279;DHT22;9773;47.062;15.446;2023-04-24T09:56:54;13.10;99.90
19279;DHT22;9773;47.062;15.446;2023-04-24T09:59:20;13.00;99.90
19279;DHT22;9773;47.062;15.446;2023-04-24T10:01:46;13.20;99.90
19279;DHT22;9773;47.062;15.446;2023-04-24T10:06:46;13.70;99.90
19279;DHT22;9773;47.062;15.446;2023-04-24T10:09:14;14.00;99.90
19279;DHT22;9773;47.062;15.446;2023-04-24T10:11:43;14.00;99.90
19279;DHT22;9773;47.062;15.446;2023-04-24T10:14:20;14.00;99.90
19279;DHT22;9773;47.062;15.446;2023-04-24T10:16:50;14.30;99.90
19279;DHT22;9773;47.062;15.446;2023-04-24T10:19:16;14.30;99.90
19279;DHT22;9773;47.062;15.446;2023-04-24T10:21:44;14.40;99.90
19279;DHT22;9773;47.062;15.446;2023-04-24T10:24:16;14.50;99.90
19279;DHT22;9773;47.062;15.446;2023-04-24T10:26:44;14.40;99.90
19279;DHT22;9773;47.062;15.446;2023-04-24T10:29:12;14.60;99.90
19279;DHT22;9773;47.062;15.446;2023-04-24T10:31:38;14.70;99.90
19279;DHT22;9773;47.062;15.446;2023-04-24T10:34:06;14.60;99.90
19279;DHT22;9773;47.062;15.446;2023-04-24T10:36:33;14.80;99.90
19279;DHT22;9773;47.062;15.446;2023-04-24T10:39:02;14.70;99.90
19279;DHT22;9773;47.062;15.446;2023-04-24T10:41:30;14.70;99.90
19279;DHT22;9773;47.062;15.446;2023-04-24T10:44:06;15.00;99.90
19279;DHT22;9773;47.062;15.446;2023-04-24T10:46:32;15.30;99.90
19279;DHT22;9773;47.062;15.446;2023-04-24T10:48:58;15.30;99.90
19279;DHT22;9773;47.062;15.446;2023-04-24T10:51:26;15.40;99.90
19279;DHT22;9773;47.062;15.446;2023-04-24T10:56:51;15.50;99.90
19279;DHT22;9773;47.062;15.446;2023-04-24T10:59:27;15.40;99.90
19279;DHT22;9773;47.062;15.446;2023-04-24T11:01:54;15.60;99.90
19279;DHT22;9773;47.062;15.446;2023-04-24T11:04:29;15.60;99.90
19279;DHT22;9773;47.062;15.446;2023-04-24T11:06:57;15.50;99.90
19279;DHT22;9773;47.062;15.446;2023-04-24T11:09:26;15.60;99.90
19279;DHT22;9773;47.062;15.446;2023-04-24T11:12:06;15.50;99.90
19279;DHT22;9773;47.062;15.446;2023-04-24T11:17:30;16.00;99.90
19279;DHT22;9773;47.062;15.446;2023-04-24T11:22:39;16.30;99.90
19279;DHT22;9773;47.062;15.446;2023-04-24T11:25:09;16.20;99.90
19279;DHT22;9773;47.062;15.446;2023-04-24T11:27:44;16.40;99.90
19279;DHT22;9773;47.062;15.446;2023-04-24T11:30:11;16.40;99.90
19279;DHT22;9773;47.062;15.446;2023-04-24T11:32:39;16.20;99.90
19279;DHT22;9773;47.062;15.446;2023-04-24T11:35:12;16.20;99.90
19279;DHT22;9773;47.062;15.446;2023-04-24T11:37:43;16.30;99.90
19279;DHT22;9773;47.062;15.446;2023-04-24T11:40:12;16.50;99.90
19279;DHT22;9773;47.062;15.446;2023-04-24T11:42:48;16.30;99.90
19279;DHT22;9773;47.062;15.446;2023-04-24T11:45:28;16.10;99.90
19279;DHT22;9773;47.062;15.446;2023-04-24T11:47:55;16.00;99.90
19279;DHT22;9773;47.062;15.446;2023-04-24T11:50:25;16.10;99.90
19279;DHT22;9773;47.062;15.446;2023-04-24T11:52:52;16.00;99.90
19279;DHT22;9773;47.062;15.446;2023-04-24T11:57:55;16.00;99.90
19279;DHT22;9773;47.062;15.446;2023-04-24T12:00:29;16.10;99.90
19279;DHT22;9773;47.062;15.446;2023-04-24T12:03:09;16.30;99.90
19279;DHT22;9773;47.062;15.446;2023-04-24T12:05:35;16.40;99.90
19279;DHT22;9773;47.062;15.446;2023-04-24T12:08:01;16.40;99.90
19279;DHT22;9773;47.062;15.446;2023-04-24T12:10:29;16.40;99.90
19279;DHT22;9773;47.062;15.446;2023-04-24T12:12:57;16.50;99.90
19279;DHT22;9773;47.062;15.446;2023-04-24T12:15:24;16.50;99.90
19279;DHT22;9773;47.062;15.446;2023-04-24T12:17:54;16.40;99.90
19279;DHT22;9773;47.062;15.446;2023-04-24T12:22:56;16.50;99.90
19279;DHT22;9773;47.062;15.446;2023-04-24T12:25:24;16.40;99.90
19279;DHT22;9773;47.062;15.446;2023-04-24T12:28:11;16.50;99.90
19279;DHT22;9773;47.062;15.446;2023-04-24T12:30:42;16.60;99.90
19279;DHT22;9773;47.062;15.446;2023-04-24T12:33:20;16.80;99.90
19279;DHT22;9773;47.062;15.446;2023-04-24T12:35:48;16.90;99.90
19279;DHT22;9773;47.062;15.446;2023-04-24T12:38:15;17.20;99.90
19279;DHT22;9773;47.062;15.446;2023-04-24T12:40:42;17.40;99.90
19279;DHT22;9773;47.062;15.446;2023-04-24T12:43:18;17.70;99.90
19279;DHT22;9773;47.062;15.446;2023-04-24T12:45:44;17.80;99.90
19279;DHT22;9773;47.062;15.446;2023-04-24T12:48:10;17.80;99.90
19279;DHT22;9773;47.062;15.446;2023-04-24T12:50:37;17.70;99.90
19279;DHT22;9773;47.062;15.446;2023-04-24T12:53:03;17.90;99.90
19279;DHT22;9773;47.062;15.446;2023-04-24T12:55:29;18.00;99.90
19279;DHT22;9773;47.062;15.446;2023-04-24T12:57:55;18.00;99.90
19279;DHT22;9773;47.062;15.446;2023-04-24T13:00:21;18.10;99.90
19279;DHT22;9773;47.062;15.446;2023-04-24T13:02:47;17.90;99.90
19279;DHT22;9773;47.062;15.446;2023-04-24T13:05:13;17.70;99.90
19279;DHT22;9773;47.062;15.446;2023-04-24T13:07:39;17.70;99.90
19279;DHT22;9773;47.062;15.446;2023-04-24T13:10:06;17.40;99.90
19279;DHT22;9773;47.062;15.446;2023-04-24T13:12:32;17.60;99.90
19279;DHT22;9773;47.062;15.446;2023-04-24T13:14:58;17.30;99.90
19279;DHT22;9773;47.062;15.446;2023-04-24T13:17:24;17.30;99.90
19279;DHT22;9773;47.062;15.446;2023-04-24T13:19:51;17.30;99.90
19279;DHT22;9773;47.062;15.446;2023-04-24T13:22:17;17.30;99.90
19279;DHT22;9773;47.062;15.446;2023-04-24T13:24:46;17.30;99.90
19279;DHT22;9773;47.062;15.446;2023-04-24T13:27:14;17.40;99.90
19279;DHT22;9773;47.062;15.446;2023-04-24T13:29:40;17.50;99.90
19279;DHT22;9773;47.062;15.446;2023-04-24T13:32:07;17.50;99.90
19279;DHT22;9773;47.062;15.446;2023-04-24T13:34:33;17.50;99.90
19279;DHT22;9773;47.062;15.446;2023-04-24T13:37:00;17.40;99.90
19279;DHT22;9773;47.062;15.446;2023-04-24T13:39:26;17.30;99.90
19279;DHT22;9773;47.062;15.446;2023-04-24T13:41:53;17.20;99.90
19279;DHT22;9773;47.062;15.446;2023-04-24T13:44:19;17.10;99.90
19279;DHT22;9773;47.062;15.446;2023-04-24T13:46:47;17.10;99.90
19279;DHT22;9773;47.062;15.446;2023-04-24T13:49:14;17.10;99.90
19279;DHT22;9773;47.062;15.446;2023-04-24T13:51:40;17.10;99.90
19279;DHT22;9773;47.062;15.446;2023-04-24T13:54:06;17.00;99.90
19279;DHT22;9773;47.062;15.446;2023-04-24T13:56:32;16.80;99.90
19279;DHT22;9773;47.062;15.446;2023-04-24T13:58:58;16.90;99.90
19279;DHT22;9773;47.062;15.446;2023-04-24T14:01:24;16.80;99.90
19279;DHT22;9773;47.062;15.446;2023-04-24T14:03:51;16.90;99.90
19279;DHT22;9773;47.062;15.446;2023-04-24T14:06:18;16.80;99.90
19279;DHT22;9773;47.062;15.446;2023-04-24T14:08:44;16.80;99.90
19279;DHT22;9773;47.062;15.446;2023-04-24T14:11:09;16.70;99.90
19279;DHT22;9773;47.062;15.446;2023-04-24T14:13:36;16.70;99.90
19279;DHT22;9773;47.062;15.446;2023-04-24T14:16:03;16.70;99.90
19279;DHT22;9773;47.062;15.446;2023-04-24T14:18:29;16.70;99.90
19279;DHT22;9773;47.062;15.446;2023-04-24T14:20:55;16.60;99.90
19279;DHT22;9773;47.062;15.446;2023-04-24T14:23:21;16.40;99.90
19279;DHT22;9773;47.062;15.446;2023-04-24T14:25:47;16.40;99.90
19279;DHT22;9773;47.062;15.446;2023-04-24T14:28:18;16.30;99.90
19279;DHT22;9773;47.062;15.446;2023-04-24T14:30:46;16.30;99.90
19279;DHT22;9773;47.062;15.446;2023-04-24T14:33:11;16.20;99.90
19279;DHT22;9773;47.062;15.446;2023-04-24T14:35:39;16.00;99.90
19279;DHT22;9773;47.062;15.446;2023-04-24T14:38:05;16.00;99.90
19279;DHT22;9773;47.062;15.446;2023-04-24T14:40:31;16.10;99.90
19279;DHT22;9773;47.062;15.446;2023-04-24T14:42:58;16.10;99.90
19279;DHT22;9773;47.062;15.446;2023-04-24T14:45:27;16.20;99.90
19279;DHT22;9773;47.062;15.446;2023-04-24T14:47:53;16.20;99.90
19279;DHT22;9773;47.062;15.446;2023-04-24T14:50:19;16.20;99.90
19279;DHT22;9773;47.062;15.446;2023-04-24T14:52:45;16.20;99.90
19279;DHT22;9773;47.062;15.446;2023-04-24T14:55:11;16.20;99.90
19279;DHT22;9773;47.062;15.446;2023-04-24T14:57:37;16.20;99.90
19279;DHT22;9773;47.062;15.446;2023-04-24T15:00:04;16.10;99.90
19279;DHT22;9773;47.062;15.446;2023-04-24T15:02:35;15.90;99.90
19279;DHT22;9773;47.062;15.446;2023-04-24T15:05:03;15.90;99.90
19279;DHT22;9773;47.062;15.446;2023-04-24T15:07:29;15.80;99.90
19279;DHT22;9773;47.062;15.446;2023-04-24T15:09:56;15.80;99.90
19279;DHT22;9773;47.062;15.446;2023-04-24T15:12:21;15.80;99.90
19279;DHT22;9773;47.062;15.446;2023-04-24T15:14:47;15.70;99.90
19279;DHT22;9773;47.062;15.446;2023-04-24T15:17:16;15.50;99.90
19279;DHT22;9773;47.062;15.446;2023-04-24T15:19:41;15.40;99.90
19279;DHT22;9773;47.062;15.446;2023-04-24T15:22:07;15.40;99.90
19279;DHT22;9773;47.062;15.446;2023-04-24T15:24:33;15.40;99.90
19279;DHT22;9773;47.062;15.446;2023-04-24T15:26:59;15.30;99.90
19279;DHT22;9773;47.062;15.446;2023-04-24T15:29:27;15.30;99.90
19279;DHT22;9773;47.062;15.446;2023-04-24T15:31:53;15.30;99.90
19279;DHT22;9773;47.062;15.446;2023-04-24T15:34:19;15.30;99.90
19279;DHT22;9773;47.062;15.446;2023-04-24T15:36:45;15.20;99.90
19279;DHT22;9773;47.062;15.446;2023-04-24T15:39:11;15.20;99.90
19279;DHT22;9773;47.062;15.446;2023-04-24T15:41:37;15.30;99.90
19279;DHT22;9773;47.062;15.446;2023-04-24T15:44:02;15.30;99.90